Time;durP1;ratioP1;P1;durP2;ratioP2;P2;SDS_P1;SDS_P2;PMS_P1;PMS_P2;Temp;Humidity;BMP_temperature;BMP_pressure;BME280_temperature;BME280_humidity;BME280_pressure;Samples;Min_cycle;Max_cycle;Signal;HPM_P1;HPM_P2
2022/09/16 00:02:25;;;;;;;;;;;12.10;99.90;;;;;;4965606;28;19933;-72
2022/09/16 00:04:50;;;;;;;;;;;12.10;99.90;;;;;;4965171;28;19930;-73
2022/09/16 00:07:16;;;;;;;;;;;12.10;99.90;;;;;;4964284;28;19977;-72
2022/09/16 00:09:41;;;;;;;;;;;12.10;99.90;;;;;;4964734;28;19926;-72
2022/09/16 00:12:07;;;;;;;;;;;12.10;99.90;;;;;;4964587;28;19933;-73
2022/09/16 00:14:32;;;;;;;;;;;12.10;99.90;;;;;;4965123;28;20603;-73
2022/09/16 00:16:58;;;;;;;;;;;12.10;99.90;;;;;;4964465;28;19930;-72
2022/09/16 00:19:23;;;;;;;;;;;12.10;99.90;;;;;;4964946;28;20071;-72
2022/09/16 00:21:49;;;;;;;;;;;12.10;99.90;;;;;;4964947;28;20442;-72
2022/09/16 00:24:15;;;;;;;;;;;12.10;99.90;;;;;;4963704;28;20285;-72
2022/09/16 00:29:17;;;;;;;;;;;12.10;99.90;;;;;;4378629;23;19933;-72
2022/09/16 00:31:42;;;;;;;;;;;12.10;99.90;;;;;;4989246;28;19926;-72
2022/09/16 00:34:08;;;;;;;;;;;12.10;99.90;;;;;;4990242;28;20395;-73
2022/09/16 00:36:33;;;;;;;;;;;12.10;99.90;;;;;;4990056;28;19984;-73
2022/09/16 00:38:59;;;;;;;;;;;12.10;99.90;;;;;;4990405;28;19933;-73
2022/09/16 00:41:26;;;;;;;;;;;12.10;99.90;;;;;;4990448;28;19988;-73
2022/09/16 00:43:53;;;;;;;;;;;12.10;99.90;;;;;;4989128;28;19925;-73
2022/09/16 00:46:21;;;;;;;;;;;12.10;99.90;;;;;;4990273;28;19941;-73
2022/09/16 00:48:47;;;;;;;;;;;12.10;99.90;;;;;;4989594;28;19953;-73
2022/09/16 00:51:13;;;;;;;;;;;12.10;99.90;;;;;;4990394;28;19925;-73
2022/09/16 00:53:41;;;;;;;;;;;12.10;99.90;;;;;;4990066;28;19936;-73
2022/09/16 00:56:08;;;;;;;;;;;12.10;99.90;;;;;;4989962;28;20294;-73
2022/09/16 00:58:43;;;;;;;;;;;12.10;99.90;;;;;;4988764;28;20794;-73
2022/09/16 01:01:08;;;;;;;;;;;12.10;99.90;;;;;;4990075;28;19926;-72
2022/09/16 01:03:36;;;;;;;;;;;12.10;99.90;;;;;;4989461;28;19930;-73
2022/09/16 01:06:03;;;;;;;;;;;12.10;99.90;;;;;;4990103;28;19930;-73
2022/09/16 01:08:29;;;;;;;;;;;12.10;99.90;;;;;;4989794;28;20408;-73
2022/09/16 01:10:54;;;;;;;;;;;12.00;99.90;;;;;;4989801;28;19972;-73
2022/09/16 01:13:20;;;;;;;;;;;12.10;99.90;;;;;;4989049;28;19926;-73
2022/09/16 01:16:04;;;;;;;;;;;12.00;99.90;;;;;;4988748;28;19926;-73
2022/09/16 01:18:34;;;;;;;;;;;12.00;99.90;;;;;;4987864;28;19983;-74
2022/09/16 01:21:08;;;;;;;;;;;12.00;99.90;;;;;;4989862;28;20036;-73
2022/09/16 01:23:36;;;;;;;;;;;12.00;99.90;;;;;;4989556;28;19986;-73
2022/09/16 01:26:23;;;;;;;;;;;11.90;99.90;;;;;;4989778;28;19979;-73
2022/09/16 01:29:00;;;;;;;;;;;11.90;99.90;;;;;;4990345;28;19926;-73
2022/09/16 01:31:32;;;;;;;;;;;11.90;99.90;;;;;;4996197;28;19933;-73
2022/09/16 01:34:07;;;;;;;;;;;11.80;99.90;;;;;;4996385;28;19952;-73
2022/09/16 01:36:35;;;;;;;;;;;11.80;99.90;;;;;;4977599;28;19965;-73
2022/09/16 01:39:00;;;;;;;;;;;11.90;99.90;;;;;;4976546;28;19937;-72
2022/09/16 01:41:52;;;;;;;;;;;11.90;99.90;;;;;;4976878;28;19926;-73
2022/09/16 01:44:26;;;;;;;;;;;11.90;99.90;;;;;;4975834;28;19926;-74
2022/09/16 01:46:52;;;;;;;;;;;11.90;99.90;;;;;;4976249;28;19933;-72
2022/09/16 01:49:20;;;;;;;;;;;11.90;99.90;;;;;;4975351;28;19926;-74
2022/09/16 01:51:53;;;;;;;;;;;11.90;99.90;;;;;;4975604;28;19926;-72
2022/09/16 01:54:22;;;;;;;;;;;11.90;99.90;;;;;;4976590;28;19972;-73
2022/09/16 01:57:11;;;;;;;;;;;11.90;99.90;;;;;;4975221;28;20385;-73
2022/09/16 01:59:49;;;;;;;;;;;11.90;99.90;;;;;;4977168;28;19932;-73
2022/09/16 02:02:20;;;;;;;;;;;11.80;99.90;;;;;;4977029;28;19953;-72
2022/09/16 02:04:52;;;;;;;;;;;11.80;99.90;;;;;;4976331;28;19981;-73
2022/09/16 02:07:19;;;;;;;;;;;11.80;99.90;;;;;;4975084;28;20467;-74
2022/09/16 02:09:50;;;;;;;;;;;11.80;99.90;;;;;;4976453;28;19926;-72
2022/09/16 02:12:19;;;;;;;;;;;11.80;99.90;;;;;;4976672;28;19930;-73
2022/09/16 02:14:46;;;;;;;;;;;11.70;99.90;;;;;;4975939;28;19980;-73
2022/09/16 02:17:15;;;;;;;;;;;11.70;99.90;;;;;;4975398;28;20025;-73
2022/09/16 02:19:47;;;;;;;;;;;11.80;99.90;;;;;;4974574;28;19926;-73
2022/09/16 02:22:17;;;;;;;;;;;11.70;99.90;;;;;;4975153;28;19926;-73
2022/09/16 02:24:45;;;;;;;;;;;11.70;99.90;;;;;;4975689;28;19980;-72
2022/09/16 02:27:13;;;;;;;;;;;11.80;99.90;;;;;;4976053;28;20026;-73
2022/09/16 02:29:42;;;;;;;;;;;11.70;99.90;;;;;;4975037;28;20432;-73
2022/09/16 02:32:08;;;;;;;;;;;11.70;99.90;;;;;;4974944;28;19926;-72
2022/09/16 02:34:44;;;;;;;;;;;11.70;99.90;;;;;;4978091;28;19973;-73
2022/09/16 02:37:15;;;;;;;;;;;11.80;99.90;;;;;;4995446;28;20379;-73
2022/09/16 02:39:45;;;;;;;;;;;11.80;99.90;;;;;;4993159;28;19922;-73
2022/09/16 02:42:10;;;;;;;;;;;11.70;99.90;;;;;;4992181;28;20020;-72
2022/09/16 02:44:36;;;;;;;;;;;11.70;99.90;;;;;;4991512;28;20075;-72
2022/09/16 02:47:14;;;;;;;;;;;11.70;99.90;;;;;;4992494;28;19959;-72
2022/09/16 02:49:55;;;;;;;;;;;11.60;99.90;;;;;;4992165;28;19926;-72
2022/09/16 02:52:39;;;;;;;;;;;11.60;99.90;;;;;;4992090;28;20443;-73
2022/09/16 02:55:05;;;;;;;;;;;11.60;99.90;;;;;;4990898;28;19929;-73
2022/09/16 02:57:30;;;;;;;;;;;11.60;99.90;;;;;;4991849;28;20323;-73
2022/09/16 02:59:56;;;;;;;;;;;11.60;99.90;;;;;;4991487;28;20338;-73
2022/09/16 03:02:21;;;;;;;;;;;11.50;99.90;;;;;;4990893;28;19932;-73
2022/09/16 03:04:47;;;;;;;;;;;11.50;99.90;;;;;;4991035;28;19926;-72
2022/09/16 03:07:13;;;;;;;;;;;11.50;99.90;;;;;;4990861;28;20395;-73
2022/09/16 03:09:40;;;;;;;;;;;11.50;99.90;;;;;;4991868;28;19933;-72
2022/09/16 03:12:12;;;;;;;;;;;11.50;99.90;;;;;;4990729;28;19933;-73
2022/09/16 03:14:41;;;;;;;;;;;11.50;99.90;;;;;;4989616;28;19933;-72
2022/09/16 03:17:18;;;;;;;;;;;11.40;99.90;;;;;;4990815;28;20323;-72
2022/09/16 03:19:46;;;;;;;;;;;11.40;99.90;;;;;;4991608;28;20027;-72
2022/09/16 03:22:21;;;;;;;;;;;11.50;99.90;;;;;;4991668;28;20392;-72
2022/09/16 03:24:56;;;;;;;;;;;11.50;99.90;;;;;;4991533;28;19925;-73
2022/09/16 03:27:33;;;;;;;;;;;11.50;99.90;;;;;;4991551;28;20017;-74
2022/09/16 03:30:02;;;;;;;;;;;11.50;99.90;;;;;;4989439;28;19926;-73
2022/09/16 03:32:32;;;;;;;;;;;11.50;99.90;;;;;;4991749;28;19941;-73
2022/09/16 03:34:59;;;;;;;;;;;11.50;99.90;;;;;;4984671;28;19926;-73
2022/09/16 03:37:26;;;;;;;;;;;11.60;99.90;;;;;;4971882;28;19927;-73
2022/09/16 03:39:54;;;;;;;;;;;11.60;99.90;;;;;;4971596;28;19933;-74
2022/09/16 03:42:20;;;;;;;;;;;11.50;99.90;;;;;;4972310;28;19926;-72
2022/09/16 03:44:45;;;;;;;;;;;11.60;99.90;;;;;;4970882;28;19935;-72
2022/09/16 03:47:11;;;;;;;;;;;11.60;99.90;;;;;;4971748;28;19936;-73
2022/09/16 03:49:36;;;;;;;;;;;11.60;99.90;;;;;;4970281;28;19922;-72
2022/09/16 03:52:04;;;;;;;;;;;11.60;99.90;;;;;;4970275;28;19926;-73
2022/09/16 03:54:30;;;;;;;;;;;11.60;99.90;;;;;;4970476;28;19930;-74
2022/09/16 03:56:56;;;;;;;;;;;11.60;99.90;;;;;;4971852;28;19922;-73
2022/09/16 03:59:21;;;;;;;;;;;11.60;99.90;;;;;;4971250;28;19926;-73
2022/09/16 04:01:47;;;;;;;;;;;11.60;99.90;;;;;;4971474;28;20020;-72
2022/09/16 04:04:12;;;;;;;;;;;11.50;99.90;;;;;;4970544;28;20940;-72
2022/09/16 04:06:38;;;;;;;;;;;11.50;99.90;;;;;;4971096;28;19973;-73
2022/09/16 04:09:05;;;;;;;;;;;11.50;99.90;;;;;;4971152;28;20392;-73
2022/09/16 04:11:31;;;;;;;;;;;11.50;99.90;;;;;;4971531;28;20323;-73
2022/09/16 04:13:57;;;;;;;;;;;11.50;99.90;;;;;;4970854;28;19935;-73
2022/09/16 04:16:23;;;;;;;;;;;11.40;99.90;;;;;;4971856;28;19979;-72
2022/09/16 04:18:49;;;;;;;;;;;11.40;99.90;;;;;;4971404;28;19973;-72
2022/09/16 04:21:14;;;;;;;;;;;11.40;99.90;;;;;;4971161;28;19953;-72
2022/09/16 04:23:40;;;;;;;;;;;11.40;99.90;;;;;;4970787;28;20328;-73
2022/09/16 04:26:05;;;;;;;;;;;11.40;99.90;;;;;;4971236;28;20280;-72
2022/09/16 04:28:31;;;;;;;;;;;11.40;99.90;;;;;;4976447;28;20026;-73
2022/09/16 04:31:01;;;;;;;;;;;11.40;99.90;;;;;;4984679;28;20028;-73
2022/09/16 04:33:28;;;;;;;;;;;11.40;99.90;;;;;;4989598;28;19921;-73
2022/09/16 04:35:53;;;;;;;;;;;11.40;99.90;;;;;;4977352;28;20007;-72
2022/09/16 04:38:18;;;;;;;;;;;11.40;99.90;;;;;;4970601;28;20365;-72
2022/09/16 04:40:44;;;;;;;;;;;11.30;99.90;;;;;;4970359;28;19949;-72
2022/09/16 04:43:10;;;;;;;;;;;11.30;99.90;;;;;;4984506;28;19932;-72
2022/09/16 04:45:35;;;;;;;;;;;11.30;99.90;;;;;;4987790;28;20426;-73
2022/09/16 04:48:00;;;;;;;;;;;11.30;99.90;;;;;;4988514;28;19972;-73
2022/09/16 04:50:26;;;;;;;;;;;11.30;99.90;;;;;;4988646;28;20415;-74
2022/09/16 04:52:52;;;;;;;;;;;11.30;99.90;;;;;;4989558;28;19926;-73
2022/09/16 04:55:17;;;;;;;;;;;11.30;99.90;;;;;;4989765;28;20380;-72
2022/09/16 04:57:43;;;;;;;;;;;11.30;99.90;;;;;;4987228;28;20020;-72
2022/09/16 05:00:09;;;;;;;;;;;11.30;99.90;;;;;;4989708;28;19925;-72
2022/09/16 05:02:35;;;;;;;;;;;11.30;99.90;;;;;;4988882;28;20378;-73
2022/09/16 05:05:00;;;;;;;;;;;11.30;99.90;;;;;;4982380;28;19970;-73
2022/09/16 05:07:28;;;;;;;;;;;11.30;99.90;;;;;;4983392;28;20420;-73
2022/09/16 05:09:54;;;;;;;;;;;11.40;99.90;;;;;;4990135;28;19926;-72
2022/09/16 05:12:20;;;;;;;;;;;11.40;99.90;;;;;;4988942;28;20017;-72
2022/09/16 05:14:45;;;;;;;;;;;11.50;99.90;;;;;;4988594;28;20520;-72
2022/09/16 05:17:11;;;;;;;;;;;11.50;99.90;;;;;;4989618;28;19972;-72
2022/09/16 05:19:36;;;;;;;;;;;11.50;99.90;;;;;;4992347;28;19983;-72
2022/09/16 05:22:05;;;;;;;;;;;11.50;99.90;;;;;;4995147;28;19934;-72
2022/09/16 05:24:36;;;;;;;;;;;11.50;99.90;;;;;;4994158;28;19940;-73
2022/09/16 05:27:02;;;;;;;;;;;11.50;99.90;;;;;;4989011;28;19926;-72
2022/09/16 05:29:27;;;;;;;;;;;11.50;99.90;;;;;;4994038;28;20400;-73
2022/09/16 05:31:53;;;;;;;;;;;11.50;99.90;;;;;;4999819;28;20362;-72
2022/09/16 05:34:20;;;;;;;;;;;11.50;99.90;;;;;;4990474;28;20004;-73
2022/09/16 05:36:46;;;;;;;;;;;11.50;99.90;;;;;;4992011;28;19937;-71
2022/09/16 05:39:12;;;;;;;;;;;11.50;99.90;;;;;;4993216;28;20028;-72
2022/09/16 05:41:38;;;;;;;;;;;11.50;99.90;;;;;;4993189;28;20010;-72
2022/09/16 05:44:05;;;;;;;;;;;11.50;99.90;;;;;;4993158;28;20022;-73
2022/09/16 05:46:31;;;;;;;;;;;11.50;99.90;;;;;;4995077;28;19933;-74
2022/09/16 05:48:56;;;;;;;;;;;11.50;99.90;;;;;;4993323;28;20292;-73
2022/09/16 05:51:22;;;;;;;;;;;11.50;99.90;;;;;;4989586;28;20012;-73
2022/09/16 05:53:49;;;;;;;;;;;11.50;99.90;;;;;;4999868;28;20404;-73
2022/09/16 05:56:16;;;;;;;;;;;11.60;99.90;;;;;;4988275;28;20388;-74
2022/09/16 05:58:41;;;;;;;;;;;11.50;99.90;;;;;;4987412;28;19929;-75
2022/09/16 06:01:08;;;;;;;;;;;11.60;99.90;;;;;;4988472;28;19933;-75
2022/09/16 06:03:35;;;;;;;;;;;11.60;99.90;;;;;;4997810;28;19979;-76
2022/09/16 06:06:00;;;;;;;;;;;11.60;99.90;;;;;;4990360;28;20024;-74
2022/09/16 06:08:27;;;;;;;;;;;11.60;99.90;;;;;;4985995;28;20575;-73
2022/09/16 06:10:52;;;;;;;;;;;11.60;99.90;;;;;;4990902;28;19925;-75
2022/09/16 06:13:18;;;;;;;;;;;11.60;99.90;;;;;;4986012;28;19929;-74
2022/09/16 06:15:50;;;;;;;;;;;11.60;99.90;;;;;;4987834;28;19938;-73
2022/09/16 06:18:17;;;;;;;;;;;11.70;99.90;;;;;;4990415;28;20319;-74
2022/09/16 06:20:43;;;;;;;;;;;11.60;99.90;;;;;;4991800;28;19932;-73
2022/09/16 06:23:08;;;;;;;;;;;11.70;99.90;;;;;;4989978;28;19922;-74
2022/09/16 06:25:34;;;;;;;;;;;11.70;99.90;;;;;;4989649;28;19932;-73
2022/09/16 06:28:00;;;;;;;;;;;11.70;99.90;;;;;;4988654;28;20035;-74
2022/09/16 06:30:25;;;;;;;;;;;11.80;99.90;;;;;;4979370;28;20412;-74
2022/09/16 06:32:51;;;;;;;;;;;11.80;99.90;;;;;;4978613;28;19932;-73
2022/09/16 06:35:16;;;;;;;;;;;11.80;99.90;;;;;;4982629;28;19922;-73
2022/09/16 06:37:42;;;;;;;;;;;11.90;99.90;;;;;;4971681;28;19926;-73
2022/09/16 06:40:08;;;;;;;;;;;12.00;99.90;;;;;;4971095;28;19934;-74
2022/09/16 06:42:33;;;;;;;;;;;12.00;99.90;;;;;;4983963;28;19929;-75
2022/09/16 06:44:59;;;;;;;;;;;12.10;99.90;;;;;;4990724;28;19926;-74
2022/09/16 06:47:24;;;;;;;;;;;12.10;99.90;;;;;;4990806;28;19926;-75
2022/09/16 06:49:50;;;;;;;;;;;12.10;99.90;;;;;;4990472;28;19930;-73
2022/09/16 06:52:15;;;;;;;;;;;12.10;99.90;;;;;;4987404;28;19934;-75
2022/09/16 06:54:41;;;;;;;;;;;12.10;99.90;;;;;;4989734;28;19932;-75
2022/09/16 06:57:06;;;;;;;;;;;12.10;99.90;;;;;;4990624;28;19926;-76
2022/09/16 06:59:32;;;;;;;;;;;12.10;99.90;;;;;;4989478;28;19969;-76
2022/09/16 07:01:57;;;;;;;;;;;12.10;99.90;;;;;;4991153;28;19933;-75
2022/09/16 07:04:23;;;;;;;;;;;12.10;99.90;;;;;;4990081;28;19991;-75
2022/09/16 07:06:49;;;;;;;;;;;12.10;99.90;;;;;;4988977;28;20543;-77
2022/09/16 07:09:14;;;;;;;;;;;12.20;99.90;;;;;;4990577;28;19948;-75
2022/09/16 07:11:40;;;;;;;;;;;12.20;99.90;;;;;;4989922;28;19930;-76
2022/09/16 07:14:06;;;;;;;;;;;12.30;99.90;;;;;;4989847;28;19933;-77
2022/09/16 07:16:32;;;;;;;;;;;12.30;99.90;;;;;;4990455;28;19925;-75
2022/09/16 07:18:58;;;;;;;;;;;12.40;99.90;;;;;;4990867;28;20284;-75
2022/09/16 07:21:27;;;;;;;;;;;12.40;99.90;;;;;;4990743;28;19933;-76
2022/09/16 07:24:00;;;;;;;;;;;12.50;99.90;;;;;;4990321;28;19992;-76
2022/09/16 07:26:27;;;;;;;;;;;12.60;99.90;;;;;;4988907;28;20379;-74
2022/09/16 07:28:53;;;;;;;;;;;12.70;99.90;;;;;;4988838;28;19926;-74
2022/09/16 07:31:20;;;;;;;;;;;12.80;99.90;;;;;;4990479;28;19971;-73
2022/09/16 07:33:47;;;;;;;;;;;12.80;99.90;;;;;;4990322;28;19926;-73
2022/09/16 07:36:14;;;;;;;;;;;12.90;99.90;;;;;;4990667;28;19980;-74
2022/09/16 07:38:39;;;;;;;;;;;12.90;99.90;;;;;;4989458;28;19926;-74
2022/09/16 07:41:12;;;;;;;;;;;12.80;99.90;;;;;;4990266;28;20093;-74
2022/09/16 07:43:39;;;;;;;;;;;12.80;99.90;;;;;;4987507;28;19972;-78
2022/09/16 07:46:05;;;;;;;;;;;12.80;99.90;;;;;;4990171;28;19987;-79
2022/09/16 07:48:31;;;;;;;;;;;12.80;99.90;;;;;;4990180;28;20352;-78
2022/09/16 07:50:58;;;;;;;;;;;12.80;99.90;;;;;;4990287;28;19925;-78
2022/09/16 07:53:26;;;;;;;;;;;12.80;99.90;;;;;;4989960;28;19973;-77
2022/09/16 07:55:52;;;;;;;;;;;12.80;99.90;;;;;;4989827;28;20020;-76
2022/09/16 07:58:18;;;;;;;;;;;12.80;99.90;;;;;;4988787;28;19988;-76
2022/09/16 08:00:44;;;;;;;;;;;12.80;99.90;;;;;;4989562;28;20379;-77
2022/09/16 08:03:09;;;;;;;;;;;12.80;99.90;;;;;;4989728;28;19933;-77
2022/09/16 08:05:35;;;;;;;;;;;12.80;99.90;;;;;;4989669;28;19980;-75
2022/09/16 08:08:00;;;;;;;;;;;12.80;99.90;;;;;;4989612;28;20003;-79
2022/09/16 08:10:26;;;;;;;;;;;12.90;99.90;;;;;;4988724;28;19949;-76
2022/09/16 08:12:52;;;;;;;;;;;12.90;99.90;;;;;;4988037;28;20391;-75
2022/09/16 08:15:17;;;;;;;;;;;12.90;99.90;;;;;;4989758;28;20380;-75
2022/09/16 08:17:43;;;;;;;;;;;13.00;99.90;;;;;;4989418;28;19936;-75
2022/09/16 08:20:08;;;;;;;;;;;13.10;99.90;;;;;;4989373;28;19933;-77
2022/09/16 08:22:34;;;;;;;;;;;13.10;99.90;;;;;;4989154;28;20013;-76
2022/09/16 08:24:59;;;;;;;;;;;13.10;99.90;;;;;;4989422;28;20385;-75
2022/09/16 08:27:25;;;;;;;;;;;13.20;99.90;;;;;;4988747;28;20380;-76
2022/09/16 08:29:51;;;;;;;;;;;13.20;99.90;;;;;;4988718;28;19951;-74
2022/09/16 08:32:16;;;;;;;;;;;13.20;99.90;;;;;;4989161;28;20016;-75
2022/09/16 08:34:42;;;;;;;;;;;13.20;99.90;;;;;;4987810;28;19973;-74
2022/09/16 08:37:08;;;;;;;;;;;13.30;99.90;;;;;;4989072;28;19973;-76
2022/09/16 08:39:34;;;;;;;;;;;13.40;99.90;;;;;;4988076;28;20049;-75
2022/09/16 08:42:03;;;;;;;;;;;13.40;99.90;;;;;;4988496;28;20447;-76
2022/09/16 08:44:49;;;;;;;;;;;13.40;99.90;;;;;;4988947;28;19932;-76
2022/09/16 08:47:17;;;;;;;;;;;13.50;99.90;;;;;;4988953;28;19926;-77
2022/09/16 08:49:44;;;;;;;;;;;13.50;99.90;;;;;;4988688;28;19957;-76
2022/09/16 08:52:13;;;;;;;;;;;13.50;99.90;;;;;;4988836;28;19925;-76
2022/09/16 08:54:41;;;;;;;;;;;13.60;99.90;;;;;;4988457;28;19925;-76
2022/09/16 08:57:10;;;;;;;;;;;13.60;99.90;;;;;;4988107;28;19926;-75
2022/09/16 08:59:39;;;;;;;;;;;13.70;99.90;;;;;;4988454;28;19933;-75
2022/09/16 09:02:07;;;;;;;;;;;13.70;99.90;;;;;;4987546;28;19980;-74
2022/09/16 09:04:33;;;;;;;;;;;13.70;99.90;;;;;;4988415;28;19962;-76
2022/09/16 09:07:19;;;;;;;;;;;13.80;99.90;;;;;;4989121;28;20035;-73
2022/09/16 09:10:03;;;;;;;;;;;13.80;99.90;;;;;;4986881;28;19933;-76
2022/09/16 09:12:33;;;;;;;;;;;13.90;99.90;;;;;;4988331;28;20400;-75
2022/09/16 09:15:17;;;;;;;;;;;14.00;99.90;;;;;;4986924;28;19926;-76
2022/09/16 09:18:00;;;;;;;;;;;14.00;99.90;;;;;;4984351;28;19969;-76
2022/09/16 09:20:40;;;;;;;;;;;14.10;99.90;;;;;;4978226;28;19926;-78
2022/09/16 09:23:12;;;;;;;;;;;14.10;99.90;;;;;;4987350;28;19929;-77
2022/09/16 09:25:56;;;;;;;;;;;14.00;99.90;;;;;;4987191;28;19936;-74
2022/09/16 09:28:31;;;;;;;;;;;13.90;99.90;;;;;;4986913;28;19933;-74
2022/09/16 09:31:03;;;;;;;;;;;13.80;99.90;;;;;;4989030;28;19926;-74
2022/09/16 09:33:34;;;;;;;;;;;13.60;99.90;;;;;;4989012;28;19988;-74
2022/09/16 09:36:22;;;;;;;;;;;13.60;99.90;;;;;;4976968;28;20375;-76
2022/09/16 09:39:00;;;;;;;;;;;13.60;99.90;;;;;;4985462;28;19926;-74
2022/09/16 09:41:37;;;;;;;;;;;13.60;99.90;;;;;;4992573;28;19925;-74
2022/09/16 09:44:22;;;;;;;;;;;13.60;99.90;;;;;;4989372;28;20337;-75
2022/09/16 09:46:51;;;;;;;;;;;13.70;99.90;;;;;;4986278;28;19972;-72
2022/09/16 09:49:33;;;;;;;;;;;13.80;99.90;;;;;;4988687;28;20284;-72
2022/09/16 09:51:59;;;;;;;;;;;13.90;99.90;;;;;;4993013;28;19926;-72
2022/09/16 09:54:24;;;;;;;;;;;14.00;99.90;;;;;;4992165;28;19928;-73
2022/09/16 09:56:52;;;;;;;;;;;14.10;99.90;;;;;;4991160;28;19936;-72
2022/09/16 09:59:17;;;;;;;;;;;14.10;99.90;;;;;;4992275;28;19965;-72
2022/09/16 10:01:43;;;;;;;;;;;14.10;99.90;;;;;;4990399;28;20357;-72
2022/09/16 10:04:13;;;;;;;;;;;14.20;99.90;;;;;;4972881;28;19930;-72
2022/09/16 10:06:40;;;;;;;;;;;14.20;99.90;;;;;;4989072;28;19930;-72
2022/09/16 10:09:09;;;;;;;;;;;14.30;99.90;;;;;;4991697;28;20309;-73
2022/09/16 10:11:44;;;;;;;;;;;14.30;99.90;;;;;;4991921;28;19926;-73
2022/09/16 10:14:21;;;;;;;;;;;14.20;99.90;;;;;;4992243;28;19996;-72
2022/09/16 10:16:49;;;;;;;;;;;14.20;99.90;;;;;;4991741;28;19997;-72
2022/09/16 10:19:22;;;;;;;;;;;14.30;99.90;;;;;;4991596;28;19992;-72
2022/09/16 10:22:08;;;;;;;;;;;14.20;99.90;;;;;;4991759;28;19961;-72
2022/09/16 10:24:41;;;;;;;;;;;14.20;99.90;;;;;;4991646;28;20013;-73
2022/09/16 10:27:21;;;;;;;;;;;14.20;99.90;;;;;;4989840;28;19932;-73
2022/09/16 10:29:47;;;;;;;;;;;14.30;99.90;;;;;;4991033;28;20343;-72
2022/09/16 10:32:16;;;;;;;;;;;14.30;99.90;;;;;;4991574;28;19930;-72
2022/09/16 10:34:41;;;;;;;;;;;14.30;99.90;;;;;;4987963;28;19937;-72
2022/09/16 10:37:11;;;;;;;;;;;14.30;99.90;;;;;;4985880;28;20380;-72
2022/09/16 10:39:42;;;;;;;;;;;14.40;99.90;;;;;;4991204;28;19973;-72
2022/09/16 10:42:24;;;;;;;;;;;14.50;99.90;;;;;;4990123;28;20411;-73
2022/09/16 10:44:51;;;;;;;;;;;14.60;99.90;;;;;;4991139;28;19984;-71
2022/09/16 10:47:21;;;;;;;;;;;14.60;99.90;;;;;;4991423;28;19932;-71
2022/09/16 10:49:48;;;;;;;;;;;14.60;99.90;;;;;;4991302;28;20276;-71
2022/09/16 10:52:15;;;;;;;;;;;14.60;99.90;;;;;;4991030;28;19926;-71
2022/09/16 10:54:41;;;;;;;;;;;14.60;99.90;;;;;;4990967;28;19929;-71
2022/09/16 10:57:25;;;;;;;;;;;14.70;99.90;;;;;;4990504;28;19933;-71
2022/09/16 10:59:59;;;;;;;;;;;14.70;99.90;;;;;;4991341;28;19948;-71
2022/09/16 11:02:54;;;;;;;;;;;14.80;99.90;;;;;;4990600;28;19933;-71
2022/09/16 11:05:38;;;;;;;;;;;14.80;99.90;;;;;;4971851;28;19998;-71
2022/09/16 11:08:09;;;;;;;;;;;14.80;99.90;;;;;;4990959;28;19937;-71
2022/09/16 11:10:35;;;;;;;;;;;14.80;99.90;;;;;;4990975;28;19926;-71
2022/09/16 11:13:19;;;;;;;;;;;14.80;99.90;;;;;;4988894;28;19951;-72
2022/09/16 11:15:53;;;;;;;;;;;14.80;99.90;;;;;;4990508;28;19946;-71
2022/09/16 11:18:19;;;;;;;;;;;14.80;99.90;;;;;;4990638;28;20052;-71
2022/09/16 11:20:59;;;;;;;;;;;14.70;99.90;;;;;;4990832;28;19972;-71
2022/09/16 11:23:31;;;;;;;;;;;14.60;99.90;;;;;;4991126;28;20353;-71
2022/09/16 11:26:06;;;;;;;;;;;14.60;99.90;;;;;;4973657;28;19996;-71
2022/09/16 11:28:39;;;;;;;;;;;14.70;99.90;;;;;;4988022;28;19926;-71
2022/09/16 11:31:11;;;;;;;;;;;14.80;99.90;;;;;;4990788;28;19992;-71
2022/09/16 11:33:40;;;;;;;;;;;14.80;99.90;;;;;;4989504;28;20021;-71
2022/09/16 11:36:08;;;;;;;;;;;14.90;99.90;;;;;;4989558;28;20340;-71
2022/09/16 11:38:40;;;;;;;;;;;14.90;99.90;;;;;;4989978;28;19926;-71
2022/09/16 11:41:14;;;;;;;;;;;15.00;99.90;;;;;;4990227;28;19933;-71
2022/09/16 11:43:51;;;;;;;;;;;15.00;99.90;;;;;;4989202;28;20419;-73
2022/09/16 11:46:25;;;;;;;;;;;15.00;99.90;;;;;;4990281;28;19933;-72
2022/09/16 11:49:10;;;;;;;;;;;15.00;99.90;;;;;;4989527;28;19926;-70
2022/09/16 11:51:35;;;;;;;;;;;15.00;99.90;;;;;;4987519;28;20219;-70
2022/09/16 11:54:07;;;;;;;;;;;15.10;99.90;;;;;;4990297;28;20407;-71
2022/09/16 11:56:36;;;;;;;;;;;15.10;99.90;;;;;;4987605;28;19964;-70
2022/09/16 11:59:01;;;;;;;;;;;15.10;99.90;;;;;;4990023;28;20005;-70
2022/09/16 12:01:33;;;;;;;;;;;15.10;99.90;;;;;;4986293;28;20400;-70
2022/09/16 12:04:03;;;;;;;;;;;15.10;99.90;;;;;;4978222;28;19996;-70
2022/09/16 12:06:33;;;;;;;;;;;15.10;99.90;;;;;;4984334;28;20270;-71
2022/09/16 12:09:04;;;;;;;;;;;15.20;99.90;;;;;;4995551;28;20284;-70
2022/09/16 12:11:33;;;;;;;;;;;15.20;99.90;;;;;;4987131;28;19933;-72
2022/09/16 12:14:04;;;;;;;;;;;15.20;99.90;;;;;;4990149;28;19926;-71
2022/09/16 12:16:47;;;;;;;;;;;15.30;99.90;;;;;;4988232;28;19988;-73
2022/09/16 12:19:32;;;;;;;;;;;15.30;99.90;;;;;;4988338;28;20395;-71
2022/09/16 12:22:03;;;;;;;;;;;15.30;99.90;;;;;;4992853;28;19941;-71
2022/09/16 12:24:31;;;;;;;;;;;15.30;99.90;;;;;;5001609;28;19926;-71
2022/09/16 12:27:17;;;;;;;;;;;15.30;99.90;;;;;;4989137;28;19926;-71
2022/09/16 12:29:47;;;;;;;;;;;15.20;99.90;;;;;;4989457;28;19930;-71
2022/09/16 12:32:21;;;;;;;;;;;15.20;99.90;;;;;;4987932;28;20016;-70
2022/09/16 12:34:52;;;;;;;;;;;15.10;99.90;;;;;;4991494;28;19926;-71
2022/09/16 12:37:25;;;;;;;;;;;15.10;99.90;;;;;;4985323;28;19932;-71
2022/09/16 12:39:51;;;;;;;;;;;15.00;99.90;;;;;;4987122;28;19926;-71
2022/09/16 12:42:28;;;;;;;;;;;15.00;99.90;;;;;;4987615;28;19932;-70
2022/09/16 12:44:59;;;;;;;;;;;15.00;99.90;;;;;;4988737;28;19930;-71
2022/09/16 12:47:37;;;;;;;;;;;15.10;99.90;;;;;;4987782;28;19926;-72
2022/09/16 12:50:02;;;;;;;;;;;15.10;99.90;;;;;;4989548;28;19930;-72
2022/09/16 12:52:28;;;;;;;;;;;15.10;99.90;;;;;;4988438;28;19933;-73
2022/09/16 12:55:12;;;;;;;;;;;15.10;99.90;;;;;;4990058;28;20025;-73
2022/09/16 12:57:49;;;;;;;;;;;15.20;99.90;;;;;;4992153;28;19980;-74
2022/09/16 13:00:24;;;;;;;;;;;15.20;99.90;;;;;;4990481;28;19980;-74
2022/09/16 13:02:58;;;;;;;;;;;15.20;99.90;;;;;;4986450;28;19952;-74
2022/09/16 13:05:31;;;;;;;;;;;15.30;99.90;;;;;;4995128;28;20044;-73
2022/09/16 13:08:02;;;;;;;;;;;15.30;99.90;;;;;;4985790;28;19926;-73
2022/09/16 13:10:27;;;;;;;;;;;15.30;99.90;;;;;;4970107;28;20031;-72
2022/09/16 13:12:54;;;;;;;;;;;15.30;99.90;;;;;;4983098;28;20013;-75
2022/09/16 13:15:24;;;;;;;;;;;15.30;99.90;;;;;;4987164;28;20328;-73
2022/09/16 13:17:53;;;;;;;;;;;15.30;99.90;;;;;;4988257;28;20404;-74
2022/09/16 13:20:25;;;;;;;;;;;15.30;99.90;;;;;;4988858;28;19926;-74
2022/09/16 13:22:59;;;;;;;;;;;15.30;99.90;;;;;;4988356;28;19980;-73
2022/09/16 13:25:26;;;;;;;;;;;15.40;99.90;;;;;;4988807;28;19926;-73
2022/09/16 13:28:00;;;;;;;;;;;15.40;99.90;;;;;;4987211;28;20446;-74
2022/09/16 13:30:31;;;;;;;;;;;15.40;99.90;;;;;;4978440;28;19926;-74
2022/09/16 13:33:00;;;;;;;;;;;15.40;99.90;;;;;;4989263;28;19972;-72
2022/09/16 13:35:40;;;;;;;;;;;15.40;99.90;;;;;;4988207;28;19980;-73
2022/09/16 13:38:18;;;;;;;;;;;15.40;99.90;;;;;;4987502;28;20017;-72
2022/09/16 13:40:54;;;;;;;;;;;15.30;99.90;;;;;;4986195;28;20045;-73
2022/09/16 13:43:38;;;;;;;;;;;15.40;99.90;;;;;;4981929;28;20364;-72
2022/09/16 13:46:08;;;;;;;;;;;15.30;99.90;;;;;;4994944;28;20303;-75
2022/09/16 13:48:37;;;;;;;;;;;15.40;99.90;;;;;;4985405;28;19976;-72
2022/09/16 13:51:06;;;;;;;;;;;15.40;99.90;;;;;;4980334;28;19930;-71
2022/09/16 13:53:33;;;;;;;;;;;15.50;99.90;;;;;;4980254;28;19925;-72
2022/09/16 13:56:03;;;;;;;;;;;15.60;99.90;;;;;;4980174;28;19949;-72
2022/09/16 13:58:33;;;;;;;;;;;15.50;99.90;;;;;;4968176;28;19933;-72
2022/09/16 14:01:11;;;;;;;;;;;15.50;99.90;;;;;;4989180;28;20304;-72
2022/09/16 14:03:37;;;;;;;;;;;15.30;99.90;;;;;;4981226;28;20020;-73
2022/09/16 14:06:09;;;;;;;;;;;15.10;99.90;;;;;;4982102;28;19968;-71
2022/09/16 14:08:34;;;;;;;;;;;15.00;99.90;;;;;;4982292;28;19926;-72
2022/09/16 14:11:07;;;;;;;;;;;14.90;99.90;;;;;;4985491;28;19926;-74
2022/09/16 14:13:38;;;;;;;;;;;14.80;99.90;;;;;;4981077;28;19930;-73
2022/09/16 14:16:08;;;;;;;;;;;14.80;99.90;;;;;;4985064;28;19937;-72
2022/09/16 14:18:34;;;;;;;;;;;14.80;99.90;;;;;;4983063;28;19929;-71
2022/09/16 14:21:04;;;;;;;;;;;14.80;99.90;;;;;;4987938;28;19926;-72
2022/09/16 14:23:30;;;;;;;;;;;14.70;99.90;;;;;;4979621;28;19972;-72
2022/09/16 14:25:56;;;;;;;;;;;14.60;99.90;;;;;;4988701;28;19933;-71
2022/09/16 14:28:23;;;;;;;;;;;14.60;99.90;;;;;;4988283;28;20269;-71
2022/09/16 14:30:53;;;;;;;;;;;14.50;99.90;;;;;;4988124;28;19933;-71
2022/09/16 14:33:42;;;;;;;;;;;14.50;99.90;;;;;;4979519;28;20028;-71